Time;durP1;ratioP1;P1;durP2;ratioP2;P2;SDS_P1;SDS_P2;PMS_P1;PMS_P2;Temp;Humidity;BMP_temperature;BMP_pressure;BME280_temperature;BME280_humidity;BME280_pressure;Samples;Min_cycle;Max_cycle;Signal;HPM_P1;HPM_P2
2023/12/08 00:00:06;;;;;;;27.25;11.25;;;;;;;6.88;59.21;98299.44;4409456;32;20098;-78
2023/12/08 00:02:33;;;;;;;23.90;10.02;;;;;;;7.76;56.34;98288.63;4409922;32;20124;-78
2023/12/08 00:05:00;;;;;;;22.33;9.85;;;;;;;7.46;56.83;98300.56;4409671;32;20090;-78
2023/12/08 00:07:27;;;;;;;22.17;9.98;;;;;;;7.29;56.37;98304.44;4409585;32;20097;-78
2023/12/08 00:09:54;;;;;;;23.25;10.25;;;;;;;6.71;57.79;98293.87;4409761;32;20342;-78
2023/12/08 00:12:21;;;;;;;24.05;10.30;;;;;;;6.91;58.31;98303.63;4409764;32;20143;-78
2023/12/08 00:14:49;;;;;;;26.20;10.73;;;;;;;6.45;59.44;98299.56;4409035;32;20457;-78
2023/12/08 00:17:16;;;;;;;26.00;10.93;;;;;;;6.58;58.47;98298.41;4409663;32;20106;-78
2023/12/08 00:19:43;;;;;;;23.23;10.10;;;;;;;6.40;58.96;98298.84;4409519;32;20089;-78
2023/12/08 00:22:10;;;;;;;22.92;9.77;;;;;;;6.41;58.90;98307.38;4409188;32;20148;-78
2023/12/08 00:24:37;;;;;;;22.30;9.77;;;;;;;6.87;57.20;98313.12;4409259;32;20177;-78
2023/12/08 00:27:05;;;;;;;23.98;9.45;;;;;;;6.67;57.58;98313.59;4409505;32;20094;-78
2023/12/08 00:29:32;;;;;;;20.85;9.00;;;;;;;6.57;58.27;98318.97;4409139;32;20098;-78
2023/12/08 00:31:59;;;;;;;22.55;8.55;;;;;;;6.13;59.62;98325.88;4395871;32;20555;-78
2023/12/08 00:34:26;;;;;;;21.58;8.80;;;;;;;6.70;58.78;98329.78;4409414;32;20561;-78
2023/12/08 00:36:53;;;;;;;23.38;9.95;;;;;;;6.53;58.92;98325.06;4409038;32;20132;-78
2023/12/08 00:39:22;;;;;;;22.60;9.35;;;;;;;6.66;58.72;98327.28;4409366;32;20147;-78
2023/12/08 00:41:49;;;;;;;21.48;9.40;;;;;;;6.93;58.06;98327.56;4409007;32;20165;-78
2023/12/08 00:44:16;;;;;;;23.38;9.70;;;;;;;6.19;59.32;98317.25;4409246;32;20090;-78
2023/12/08 00:46:43;;;;;;;24.42;10.93;;;;;;;5.82;60.29;98328.19;4409173;32;20120;-78
2023/12/08 00:49:10;;;;;;;26.50;11.27;;;;;;;6.36;59.30;98320.28;4410703;32;20104;-78
2023/12/08 00:51:37;;;;;;;24.58;10.80;;;;;;;6.50;58.80;98327.69;4411220;32;20143;-78
2023/12/08 00:54:04;;;;;;;26.15;11.60;;;;;;;6.67;58.24;98316.16;4411153;32;20177;-78
2023/12/08 00:56:31;;;;;;;25.95;10.23;;;;;;;7.41;56.03;98325.50;4410697;32;20125;-78
2023/12/08 00:58:58;;;;;;;22.37;9.98;;;;;;;7.37;55.48;98320.50;4411190;32;20093;-78
2023/12/08 01:01:25;;;;;;;23.73;9.95;;;;;;;6.00;59.06;98319.34;4411080;32;20093;-78
2023/12/08 01:03:52;;;;;;;25.55;9.43;;;;;;;5.81;61.01;98311.13;4410623;32;20082;-78
2023/12/08 01:06:19;;;;;;;26.10;9.32;;;;;;;5.12;62.29;98314.09;4410867;32;20118;-78
2023/12/08 01:08:46;;;;;;;24.70;10.18;;;;;;;5.42;63.08;98320.38;4411176;32;20098;-78
2023/12/08 01:11:13;;;;;;;27.08;11.05;;;;;;;5.02;64.07;98318.53;4410695;32;20590;-78
2023/12/08 01:13:40;;;;;;;25.10;10.55;;;;;;;5.58;63.23;98316.69;4411100;32;20105;-78
2023/12/08 01:16:07;;;;;;;24.92;10.35;;;;;;;6.01;61.22;98316.75;4410851;32;20166;-78
2023/12/08 01:18:34;;;;;;;25.37;10.82;;;;;;;7.25;56.94;98316.50;4410698;32;20101;-78
2023/12/08 01:21:02;;;;;;;24.15;10.13;;;;;;;7.11;56.29;98305.72;4410950;32;20151;-78
2023/12/08 01:23:29;;;;;;;25.40;9.98;;;;;;;6.51;58.77;98312.28;4410851;32;20104;-78
2023/12/08 01:25:56;;;;;;;26.50;11.07;;;;;;;6.44;59.11;98309.87;4410481;32;20472;-78
2023/12/08 01:28:23;;;;;;;26.12;10.80;;;;;;;6.59;58.93;98301.81;4410932;32;20489;-78
2023/12/08 01:30:50;;;;;;;23.27;10.48;;;;;;;6.68;58.46;98306.75;4410491;32;20506;-78
2023/12/08 01:33:17;;;;;;;23.58;10.52;;;;;;;6.62;58.58;98299.22;4410994;32;20120;-78
2023/12/08 01:35:44;;;;;;;25.30;10.90;;;;;;;6.78;58.53;98302.25;4410799;32;20094;-78
2023/12/08 01:38:11;;;;;;;26.87;10.93;;;;;;;6.98;57.47;98307.75;4410448;32;20098;-78
2023/12/08 01:40:40;;;;;;;26.23;10.63;;;;;;;6.73;58.81;98296.41;4410780;32;20093;-78
2023/12/08 01:43:13;;;;;;;24.40;10.40;;;;;;;7.01;58.37;98296.56;4410882;32;20141;-78
2023/12/08 01:45:40;;;;;;;27.25;11.10;;;;;;;6.35;60.50;98290.41;4410372;32;20106;-78
2023/12/08 01:48:08;;;;;;;26.90;11.10;;;;;;;6.99;58.69;98299.16;4410911;32;20111;-78
2023/12/08 01:50:35;;;;;;;23.25;10.70;;;;;;;6.86;59.31;98293.50;4397229;32;20090;-78
2023/12/08 01:53:03;;;;;;;22.77;10.48;;;;;;;6.88;58.86;98296.88;4396660;32;20421;-78
2023/12/08 01:55:31;;;;;;;30.30;13.10;;;;;;;7.11;58.57;98296.31;4397052;32;20149;-78
2023/12/08 01:57:58;;;;;;;32.85;14.10;;;;;;;7.57;56.08;98294.28;4410659;32;20165;-78
2023/12/08 02:00:27;;;;;;;31.10;13.10;;;;;;;7.88;54.87;98299.44;4396531;32;20085;-78
2023/12/08 02:02:55;;;;;;;29.85;12.27;;;;;;;7.74;55.23;98302.37;4397099;32;20100;-78
2023/12/08 02:05:22;;;;;;;31.62;13.55;;;;;;;7.42;56.17;98292.97;4410514;32;20121;-78
2023/12/08 02:07:51;;;;;;;33.80;14.32;;;;;;;7.21;56.97;98282.34;4396749;32;20101;-78
2023/12/08 02:10:19;;;;;;;30.35;13.65;;;;;;;7.24;56.55;98279.72;4397065;32;20094;-78
2023/12/08 02:12:46;;;;;;;29.80;13.57;;;;;;;7.69;55.46;98274.25;4410630;32;20094;-78
2023/12/08 02:15:13;;;;;;;38.58;15.88;;;;;;;7.97;53.87;98274.31;4410213;32;20138;-78
2023/12/08 02:17:41;;;;;;;40.28;17.08;;;;;;;6.71;56.24;98283.63;4410644;32;20124;-78
2023/12/08 02:20:11;;;;;;;48.08;21.00;;;;;;;7.10;56.04;98279.22;4410248;32;20500;-78
2023/12/08 02:22:38;;;;;;;46.37;20.12;;;;;;;6.80;55.84;98272.28;4396965;32;20144;-78
2023/12/08 02:25:06;;;;;;;43.10;17.90;;;;;;;6.98;55.74;98279.53;4410153;32;20102;-78
2023/12/08 02:27:33;;;;;;;38.80;16.67;;;;;;;7.00;55.68;98274.34;4410296;32;20094;-78
2023/12/08 02:30:00;;;;;;;40.72;16.50;;;;;;;6.68;56.35;98270.84;4410598;32;20143;-78
2023/12/08 02:32:37;;;;;;;37.13;16.08;;;;;;;6.60;57.13;98273.63;4410490;32;20157;-78
2023/12/08 02:35:06;;;;;;;33.95;14.23;;;;;;;6.80;57.19;98280.81;4410154;32;20121;-78
2023/12/08 02:37:35;;;;;;;39.15;16.33;;;;;;;6.89;56.72;98275.47;4410582;32;20131;-78
2023/12/08 02:40:05;;;;;;;44.78;17.75;;;;;;;6.73;56.89;98281.00;4396754;32;20081;-78
2023/12/08 02:42:33;;;;;;;43.40;17.25;;;;;;;6.79;56.39;98276.56;4396519;32;20526;-78
2023/12/08 02:45:00;;;;;;;31.12;13.30;;;;;;;6.73;56.11;98276.72;4396535;32;20150;-78
2023/12/08 02:47:27;;;;;;;30.67;12.85;;;;;;;6.56;56.53;98266.84;4410438;32;20687;-78
2023/12/08 02:49:55;;;;;;;31.95;13.88;;;;;;;6.45;57.35;98278.22;4396517;32;20089;-78
2023/12/08 02:52:22;;;;;;;34.10;15.95;;;;;;;6.58;57.14;98277.91;4410347;32;20139;-78
2023/12/08 02:54:49;;;;;;;38.40;17.30;;;;;;;6.42;57.30;98275.75;4410349;32;20094;-78
2023/12/08 02:57:16;;;;;;;40.22;16.70;;;;;;;6.80;55.67;98282.53;4410088;32;20148;-78
2023/12/08 02:59:43;;;;;;;42.15;17.92;;;;;;;6.74;55.75;98278.41;4396665;32;20149;-78
2023/12/08 03:02:10;;;;;;;39.08;17.35;;;;;;;7.21;54.66;98277.22;4410005;32;20085;-78
2023/12/08 03:04:37;;;;;;;41.40;18.75;;;;;;;7.59;52.69;98277.97;4410264;32;20134;-78
2023/12/08 03:07:04;;;;;;;43.87;19.42;;;;;;;6.49;54.88;98270.47;4410180;32;20103;-78
2023/12/08 03:09:31;;;;;;;44.13;18.73;;;;;;;6.13;55.60;98268.69;4409966;32;20081;-78
2023/12/08 03:11:58;;;;;;;46.55;18.80;;;;;;;6.04;55.25;98265.44;4409587;32;20097;-78
2023/12/08 03:14:25;;;;;;;42.85;18.60;;;;;;;6.97;53.18;98275.28;4410227;32;20432;-78
2023/12/08 03:16:52;;;;;;;38.20;16.55;;;;;;;6.58;53.24;98272.78;4409948;32;20116;-78
2023/12/08 03:19:19;;;;;;;31.90;13.20;;;;;;;6.87;52.48;98274.66;4396498;32;20132;-78
2023/12/08 03:21:46;;;;;;;28.42;11.30;;;;;;;5.61;55.04;98267.16;4410153;32;20086;-78
2023/12/08 03:24:13;;;;;;;25.27;11.57;;;;;;;6.85;52.38;98270.47;4409768;32;20117;-78
2023/12/08 03:26:40;;;;;;;25.77;11.12;;;;;;;6.85;51.58;98278.16;4410014;32;20157;-78
2023/12/08 03:29:07;;;;;;;24.98;10.60;;;;;;;6.36;52.55;98272.44;4410256;32;20085;-78
2023/12/08 03:31:34;;;;;;;22.90;9.80;;;;;;;6.33;52.61;98271.66;4409682;32;20077;-78
2023/12/08 03:34:01;;;;;;;24.35;9.93;;;;;;;5.71;54.51;98284.03;4410170;32;20164;-78
2023/12/08 03:36:28;;;;;;;26.95;10.93;;;;;;;5.56;55.04;98274.09;4409895;32;20445;-78
2023/12/08 03:38:55;;;;;;;25.95;10.57;;;;;;;5.44;55.25;98278.56;4409818;32;20104;-79
2023/12/08 03:41:22;;;;;;;21.87;9.77;;;;;;;4.59;56.77;98262.97;4409937;32;20086;-78
2023/12/08 03:43:49;;;;;;;25.05;11.07;;;;;;;4.64;57.22;98258.59;4409944;32;20103;-78
2023/12/08 03:46:16;;;;;;;27.30;10.80;;;;;;;5.96;54.31;98257.09;4409476;32;20202;-78
2023/12/08 03:48:43;;;;;;;24.77;10.68;;;;;;;5.63;54.86;98263.69;4410128;32;20086;-78
2023/12/08 03:51:11;;;;;;;23.02;9.18;;;;;;;5.61;55.06;98257.75;4396078;32;20159;-78
2023/12/08 03:53:38;;;;;;;26.52;11.50;;;;;;;5.31;54.68;98254.06;4409892;32;20106;-78
2023/12/08 03:56:06;;;;;;;25.95;10.50;;;;;;;5.22;55.88;98252.53;4409629;32;20112;-78
2023/12/08 03:58:33;;;;;;;24.17;10.18;;;;;;;5.08;55.50;98248.50;4409636;32;20078;-78
2023/12/08 04:01:00;;;;;;;26.58;10.93;;;;;;;5.84;53.88;98247.03;4409764;32;20521;-78
2023/12/08 04:03:28;;;;;;;25.37;10.77;;;;;;;6.08;53.55;98256.00;4409829;32;20110;-78
2023/12/08 04:05:55;;;;;;;29.40;10.88;;;;;;;5.67;54.32;98259.38;4409414;32;20090;-78
2023/12/08 04:08:22;;;;;;;25.45;10.15;;;;;;;5.57;55.05;98263.81;4409819;32;20168;-78
2023/12/08 04:10:49;;;;;;;25.12;10.60;;;;;;;5.35;55.33;98268.50;4409691;32;20108;-78
2023/12/08 04:13:16;;;;;;;26.00;10.07;;;;;;;6.04;53.63;98269.72;4409430;32;20107;-78
2023/12/08 04:15:43;;;;;;;27.10;11.10;;;;;;;5.72;54.62;98272.91;4409552;32;20094;-78
2023/12/08 04:18:10;;;;;;;27.90;11.68;;;;;;;5.37;55.91;98264.19;4409761;32;20086;-78
2023/12/08 04:20:37;;;;;;;27.77;11.70;;;;;;;5.99;54.53;98269.00;4409049;32;20591;-78
2023/12/08 04:23:06;;;;;;;32.08;11.82;;;;;;;4.81;57.32;98262.63;4409443;32;20489;-78
2023/12/08 04:25:34;;;;;;;34.50;12.85;;;;;;;5.57;56.34;98258.69;4404814;32;148174;-78
2023/12/08 04:28:03;;;;;;;40.33;15.40;;;;;;;4.55;59.27;98258.75;4409179;32;20085;-78
2023/12/08 04:30:30;;;;;;;33.90;14.43;;;;;;;5.19;58.22;98257.69;4409510;32;20150;-78
2023/12/08 04:32:57;;;;;;;29.73;12.43;;;;;;;5.29;57.85;98255.81;4409470;32;20112;-78
2023/12/08 04:35:24;;;;;;;38.38;13.60;;;;;;;5.21;58.33;98255.97;4408909;32;20105;-78
2023/12/08 04:37:52;;;;;;;28.33;12.27;;;;;;;6.02;56.96;98254.38;4409461;32;20081;-78
2023/12/08 04:40:19;;;;;;;28.40;11.48;;;;;;;5.74;56.44;98254.09;4408968;32;20470;-78
2023/12/08 04:42:46;;;;;;;24.42;9.82;;;;;;;6.03;55.20;98257.78;4409358;32;20426;-78
2023/12/08 04:45:14;;;;;;;25.65;10.50;;;;;;;5.54;56.08;98251.09;4409083;32;20182;-78
2023/12/08 04:47:41;;;;;;;25.75;11.05;;;;;;;5.51;56.76;98243.44;4409052;32;20385;-78
2023/12/08 04:50:08;;;;;;;24.27;10.23;;;;;;;5.49;56.96;98235.81;4409209;32;20112;-78
2023/12/08 04:52:35;;;;;;;26.67;10.10;;;;;;;5.87;56.32;98246.16;4409160;32;20114;-78
2023/12/08 04:55:04;;;;;;;25.83;10.98;;;;;;;6.06;55.82;98248.34;4408835;32;20129;-78
2023/12/08 04:57:32;;;;;;;29.27;11.68;;;;;;;5.50;57.59;98254.56;4409157;32;20504;-78
2023/12/08 04:59:59;;;;;;;28.48;11.70;;;;;;;5.85;56.77;98243.62;4409104;32;20102;-78
2023/12/08 05:02:26;;;;;;;23.87;9.63;;;;;;;5.55;57.59;98252.78;4408584;32;20385;-79
2023/12/08 05:04:53;;;;;;;28.30;11.12;;;;;;;5.87;56.77;98251.28;4395265;32;20140;-79
2023/12/08 05:07:20;;;;;;;25.15;11.50;;;;;;;5.71;56.66;98248.19;4408945;32;20504;-78
2023/12/08 05:09:47;;;;;;;27.40;11.02;;;;;;;5.86;56.91;98255.56;4408528;32;20101;-78
2023/12/08 05:12:14;;;;;;;26.95;11.20;;;;;;;5.94;56.55;98256.25;4395263;32;20146;-78
2023/12/08 05:14:41;;;;;;;27.27;11.43;;;;;;;5.40;58.49;98260.72;4408774;32;20125;-78
2023/12/08 05:17:08;;;;;;;25.85;10.75;;;;;;;6.38;55.61;98257.88;4408618;32;20102;-78
2023/12/08 05:19:35;;;;;;;26.50;10.23;;;;;;;5.42;57.95;98256.41;4408798;32;20094;-78
2023/12/08 05:22:04;;;;;;;27.35;11.38;;;;;;;5.23;58.67;98259.34;4408705;32;20106;-78
2023/12/08 05:24:31;;;;;;;30.85;12.82;;;;;;;5.36;58.72;98257.38;4408135;32;20110;-78
2023/12/08 05:26:58;;;;;;;30.83;12.77;;;;;;;5.25;59.41;98255.91;4408822;32;20804;-82
2023/12/08 05:29:25;;;;;;;40.20;17.20;;;;;;;5.33;59.26;98252.34;4408353;32;20678;-82
2023/12/08 05:31:52;;;;;;;55.22;21.77;;;;;;;4.09;64.71;98248.37;4408758;32;20112;-78
2023/12/08 05:34:19;;;;;;;58.00;24.17;;;;;;;5.08;63.31;98249.34;4409633;32;20090;-84
2023/12/08 05:36:46;;;;;;;72.43;30.80;;;;;;;6.00;61.38;98252.75;4410603;32;20112;-85
2023/12/08 05:39:14;;;;;;;74.95;32.45;;;;;;;6.06;61.81;98250.91;4411090;32;20083;-83
2023/12/08 05:41:41;;;;;;;33.85;14.57;;;;;;;5.50;63.91;98250.28;4410705;32;20114;-82
2023/12/08 05:44:08;;;;;;;37.70;15.73;;;;;;;5.70;63.91;98252.47;4410589;32;20106;-82
2023/12/08 05:55:45;;;;;;;65.32;26.00;;;;;;;5.73;64.58;98249.81;4794797;26;20142;-82
2023/12/08 06:05:37;;;;;;;42.38;16.23;;;;;;;5.38;65.93;98268.44;4495178;27;20117;-81
2023/12/08 06:20:23;;;;;;;39.25;15.70;;;;;;;6.75;61.23;98258.72;4980622;26;20133;-82
2023/12/08 06:38:11;;;;;;;43.53;17.98;;;;;;;7.32;59.56;98273.53;4937732;27;20090;-82
2023/12/08 06:50:30;;;;;;;32.70;14.98;;;;;;;6.06;63.88;98258.59;4490220;27;20085;-82
2023/12/08 06:52:57;;;;;;;37.05;15.85;;;;;;;6.31;63.34;98258.88;4395221;32;20099;-82
2023/12/08 06:55:25;;;;;;;38.25;17.15;;;;;;;6.20;64.10;98249.75;4397558;32;20580;-83
2023/12/08 06:57:52;;;;;;;39.10;18.02;;;;;;;6.40;62.50;98257.00;4410505;32;20082;-81
2023/12/08 07:00:19;;;;;;;43.17;18.20;;;;;;;5.88;64.91;98269.19;4410223;32;20109;-81
2023/12/08 07:02:46;;;;;;;30.25;12.95;;;;;;;6.08;64.70;98279.88;4409903;32;20155;-82
2023/12/08 07:07:49;;;;;;;28.15;12.27;;;;;;;5.91;64.54;98273.41;4761258;26;20157;-82
2023/12/08 07:10:16;;;;;;;35.30;14.05;;;;;;;6.58;62.66;98275.34;4395100;32;20437;-82
2023/12/08 07:12:43;;;;;;;43.17;15.48;;;;;;;6.43;62.85;98278.28;4395067;32;20134;-82
2023/12/08 07:15:10;;;;;;;36.63;16.02;;;;;;;6.56;62.78;98279.66;4395227;32;20157;-80
2023/12/08 07:17:38;;;;;;;30.65;13.27;;;;;;;5.62;64.67;98289.31;4410112;32;20157;-81
2023/12/08 07:20:11;;;;;;;31.17;13.38;;;;;;;6.96;61.59;98294.13;4410197;32;20101;-83
2023/12/08 07:22:39;;;;;;;34.30;13.95;;;;;;;7.46;60.11;98307.41;4409925;32;20468;-82
2023/12/08 07:30:51;;;;;;;36.72;14.82;;;;;;;7.42;58.55;98309.19;4212797;30;20082;-81
2023/12/08 07:33:18;;;;;;;33.45;14.82;;;;;;;7.35;58.48;98306.84;4378824;32;20120;-83
2023/12/08 07:35:45;;;;;;;34.10;15.95;;;;;;;7.50;58.54;98306.44;4380811;32;20107;-83
2023/12/08 07:38:12;;;;;;;34.92;16.73;;;;;;;7.84;56.66;98302.06;4380606;32;20086;-83
2023/12/08 07:40:39;;;;;;;36.08;16.58;;;;;;;7.90;56.80;98308.78;4379703;32;20154;-79
2023/12/08 07:43:06;;;;;;;40.10;17.65;;;;;;;7.69;57.36;98306.81;4379473;32;20476;-82
2023/12/08 07:45:33;;;;;;;54.40;25.08;;;;;;;7.66;57.12;98292.31;4379557;32;20115;-81
2023/12/08 07:48:00;;;;;;;54.40;24.77;;;;;;;7.45;58.77;98304.00;4379902;32;20122;-81
2023/12/08 07:50:27;;;;;;;39.40;19.08;;;;;;;7.53;58.35;98306.34;4379355;32;20087;-81
2023/12/08 07:52:54;;;;;;;36.30;16.75;;;;;;;8.07;57.42;98301.41;4379771;32;20506;-81
2023/12/08 07:55:21;;;;;;;36.90;17.23;;;;;;;6.72;61.12;98300.69;4379639;32;20108;-81
2023/12/08 07:57:48;;;;;;;36.92;17.23;;;;;;;7.23;60.07;98310.53;4379068;32;20141;-81
2023/12/08 08:00:16;;;;;;;38.35;16.62;;;;;;;7.40;59.35;98305.00;4380129;32;20090;-81
2023/12/08 08:02:43;;;;;;;49.88;20.48;;;;;;;7.27;59.00;98301.91;4379710;32;20095;-80
2023/12/08 08:05:11;;;;;;;51.80;23.25;;;;;;;6.93;61.53;98292.47;4379210;32;20102;-82
2023/12/08 08:07:38;;;;;;;45.88;20.58;;;;;;;6.81;60.94;98302.19;4379965;32;20150;-82
2023/12/08 08:10:06;;;;;;;46.67;20.42;;;;;;;7.44;59.83;98297.19;4380381;32;20156;-81
2023/12/08 08:12:33;;;;;;;43.22;20.75;;;;;;;7.17;59.75;98292.75;4379134;32;20094;-81
2023/12/08 08:15:00;;;;;;;43.40;18.62;;;;;;;6.26;64.65;98285.47;4379354;32;20102;-81
2023/12/08 08:17:27;;;;;;;44.38;18.27;;;;;;;5.84;66.17;98292.28;4379489;32;20094;-80
2023/12/08 08:19:55;;;;;;;37.15;16.48;;;;;;;7.20;61.69;98288.38;4379255;32;20133;-80
2023/12/08 08:22:22;;;;;;;27.58;10.65;;;;;;;7.34;60.65;98284.63;4380110;32;20438;-81
2023/12/08 08:25:01;;;;;;;39.33;17.12;;;;;;;7.02;61.09;98288.84;4379724;32;20099;-82
2023/12/08 08:27:28;;;;;;;30.65;13.60;;;;;;;7.27;60.21;98273.69;4379288;32;20103;-82
2023/12/08 08:29:56;;;;;;;23.80;10.52;;;;;;;7.21;60.32;98284.94;4353877;32;20104;-81
2023/12/08 08:32:23;;;;;;;22.70;10.30;;;;;;;6.84;60.07;98287.56;4378044;32;20133;-80
2023/12/08 08:34:55;;;;;;;24.85;9.80;;;;;;;6.89;60.12;98285.72;4379174;32;20113;-81
2023/12/08 08:37:24;;;;;;;24.25;9.70;;;;;;;6.86;60.04;98280.69;4379048;32;20149;-82
2023/12/08 08:39:52;;;;;;;23.35;9.98;;;;;;;6.83;60.44;98282.47;4365300;32;20091;-81
2023/12/08 08:42:19;;;;;;;21.73;9.05;;;;;;;6.54;61.12;98278.87;4379057;32;20168;-81
2023/12/08 08:44:46;;;;;;;18.67;7.78;;;;;;;6.47;61.43;98274.75;4379194;32;20447;-81
2023/12/08 08:47:13;;;;;;;18.42;8.30;;;;;;;6.19;61.38;98274.53;4379532;32;20100;-83
2023/12/08 08:49:41;;;;;;;21.48;8.60;;;;;;;6.81;58.57;98274.81;4382005;32;20365;-81
2023/12/08 08:52:08;;;;;;;20.67;9.07;;;;;;;6.99;58.82;98273.53;4365539;32;20115;-81
2023/12/08 08:54:35;;;;;;;23.60;9.43;;;;;;;6.70;60.40;98265.69;4378595;32;20439;-81
2023/12/08 08:57:04;;;;;;;21.17;9.10;;;;;;;6.42;61.04;98258.66;4379009;32;20086;-81
2023/12/08 08:59:32;;;;;;;19.52;8.77;;;;;;;6.97;59.08;98276.13;4378811;32;20157;-82
2023/12/08 09:01:58;;;;;;;18.50;8.23;;;;;;;6.47;60.43;98261.94;4378542;32;20095;-83
2023/12/08 09:04:25;;;;;;;15.15;6.95;;;;;;;7.46;57.29;98274.03;4378772;32;20155;-81
2023/12/08 09:06:52;;;;;;;19.33;8.13;;;;;;;7.54;56.69;98279.78;4378712;32;20108;-82
2023/12/08 09:09:20;;;;;;;16.10;6.75;;;;;;;7.70;56.86;98278.50;4379734;32;20125;-83
2023/12/08 09:11:47;;;;;;;14.98;6.45;;;;;;;7.53;57.17;98275.53;4367646;32;20111;-82
2023/12/08 09:14:15;;;;;;;14.43;5.85;;;;;;;9.24;52.86;98283.25;4380571;32;20607;-83
2023/12/08 09:16:41;;;;;;;13.75;5.70;;;;;;;10.01;50.48;98271.94;4367217;32;20144;-81
2023/12/08 09:19:08;;;;;;;13.95;5.53;;;;;;;10.39;48.70;98260.19;4381043;32;20150;-82
2023/12/08 09:21:36;;;;;;;14.48;6.20;;;;;;;11.35;47.09;98259.78;4380336;32;20441;-82
2023/12/08 09:24:17;;;;;;;13.50;5.95;;;;;;;11.59;44.46;98264.75;4379806;32;20116;-82
2023/12/08 09:26:44;;;;;;;14.43;6.22;;;;;;;12.40;43.50;98255.94;4380579;32;20094;-82
2023/12/08 09:29:11;;;;;;;14.48;6.45;;;;;;;11.22;45.32;98256.88;4380157;32;20082;-83
2023/12/08 09:31:38;;;;;;;14.70;5.35;;;;;;;10.84;46.92;98264.44;4380845;32;20099;-82
2023/12/08 09:34:05;;;;;;;12.68;5.20;;;;;;;11.10;46.19;98249.66;4380878;32;20115;-82
2023/12/08 09:36:33;;;;;;;11.02;4.25;;;;;;;11.52;44.53;98257.31;4365942;32;20161;-81
2023/12/08 09:39:00;;;;;;;14.70;5.95;;;;;;;11.29;44.00;98235.91;4379369;32;20094;-82
2023/12/08 09:41:27;;;;;;;13.88;5.62;;;;;;;11.72;44.16;98235.78;4370362;32;20126;-82
2023/12/08 09:44:00;;;;;;;10.57;4.20;;;;;;;11.96;43.57;98232.13;4351918;32;20141;-82
2023/12/08 09:46:30;;;;;;;13.68;5.60;;;;;;;11.44;44.51;98236.97;4353022;32;20172;-82
2023/12/08 09:48:59;;;;;;;14.13;5.78;;;;;;;11.56;44.67;98218.34;4378905;32;20074;-82
2023/12/08 09:51:27;;;;;;;17.77;6.87;;;;;;;11.56;44.49;98210.59;4367076;32;20157;-82
2023/12/08 09:53:54;;;;;;;17.25;7.43;;;;;;;8.67;51.31;98214.81;4380345;32;20117;-81
2023/12/08 09:56:23;;;;;;;14.65;6.00;;;;;;;9.94;49.38;98208.63;4380154;32;20102;-80
2023/12/08 09:58:51;;;;;;;11.52;5.32;;;;;;;11.15;45.64;98214.12;4380530;32;20083;-81
2023/12/08 10:01:18;;;;;;;12.50;6.05;;;;;;;11.17;45.55;98214.94;4380453;32;20113;-82
2023/12/08 10:03:45;;;;;;;17.33;7.60;;;;;;;9.90;49.32;98206.22;4380151;32;20149;-82
2023/12/08 10:06:13;;;;;;;12.35;5.62;;;;;;;10.00;48.33;98195.50;4371589;32;20099;-80
2023/12/08 10:08:40;;;;;;;13.10;6.28;;;;;;;10.18;48.29;98208.59;4361412;32;20095;-81
2023/12/08 10:11:07;;;;;;;15.70;7.22;;;;;;;9.24;50.13;98206.00;4380166;32;20107;-81
2023/12/08 10:13:35;;;;;;;17.33;7.65;;;;;;;8.87;51.39;98196.13;4379079;32;20087;-83
2023/12/08 10:16:02;;;;;;;16.58;7.35;;;;;;;9.24;50.80;98196.53;4380257;32;20829;-82
2023/12/08 10:18:29;;;;;;;15.15;7.10;;;;;;;9.27;51.08;98190.47;4369078;32;20078;-81
2023/12/08 10:21:15;;;;;;;16.10;7.70;;;;;;;9.64;49.33;98191.72;4371791;32;20220;-81
2023/12/08 10:23:44;;;;;;;19.92;8.13;;;;;;;9.24;50.83;98191.41;4365549;32;20113;-82
2023/12/08 10:26:16;;;;;;;17.98;8.13;;;;;;;8.20;52.88;98201.69;4352261;32;20098;-82
2023/12/08 10:28:43;;;;;;;18.87;7.95;;;;;;;8.57;53.17;98200.56;4374810;32;20082;-82
2023/12/08 10:31:11;;;;;;;18.40;7.82;;;;;;;8.35;53.56;98188.38;4373615;32;20166;-82
2023/12/08 10:33:42;;;;;;;16.70;7.37;;;;;;;8.85;52.29;98195.34;4365535;32;20099;-82
2023/12/08 10:36:09;;;;;;;15.63;7.12;;;;;;;8.44;52.85;98191.56;4371076;32;20481;-83
2023/12/08 10:38:36;;;;;;;21.00;9.38;;;;;;;8.68;53.39;98193.34;4351538;32;20113;-82
2023/12/08 10:41:04;;;;;;;19.17;8.88;;;;;;;8.99;52.35;98193.16;4355758;32;20166;-83
2023/12/08 10:43:31;;;;;;;19.92;8.90;;;;;;;9.34;50.90;98188.50;4375471;32;20125;-83
2023/12/08 10:45:59;;;;;;;23.65;10.40;;;;;;;7.91;54.80;98194.84;4365647;32;20497;-83
2023/12/08 10:48:26;;;;;;;21.05;8.98;;;;;;;7.26;57.67;98184.72;4368860;32;20106;-84
2023/12/08 10:50:53;;;;;;;20.12;8.18;;;;;;;7.84;55.62;98183.06;4365588;32;20107;-83
2023/12/08 10:53:20;;;;;;;19.00;9.05;;;;;;;7.42;55.83;98175.72;4365976;32;20087;-83
2023/12/08 10:56:00;;;;;;;20.10;8.68;;;;;;;7.24;57.41;98173.66;4357970;32;20094;-84
2023/12/08 10:58:28;;;;;;;19.02;8.82;;;;;;;7.83;55.63;98171.94;4371190;32;20099;-83
2023/12/08 11:00:55;;;;;;;21.58;10.20;;;;;;;7.07;57.45;98180.97;4372563;32;20103;-83
2023/12/08 11:03:23;;;;;;;23.87;9.88;;;;;;;7.76;55.95;98180.75;4368147;32;20078;-82
2023/12/08 11:06:07;;;;;;;21.10;9.63;;;;;;;7.78;55.92;98180.69;4379975;32;20071;-82
2023/12/08 11:08:35;;;;;;;18.58;9.13;;;;;;;7.84;55.76;98170.22;4390577;32;20067;-82
2023/12/08 11:11:06;;;;;;;21.48;8.93;;;;;;;7.56;56.41;98175.34;4359650;32;20098;-83
2023/12/08 11:13:38;;;;;;;19.05;8.40;;;;;;;7.05;57.31;98177.63;4367520;32;20185;-83
2023/12/08 11:16:28;;;;;;;16.33;7.37;;;;;;;7.32;57.24;98169.16;4379941;32;20094;-83
2023/12/08 11:18:55;;;;;;;17.58;7.43;;;;;;;6.76;58.22;98170.66;4367197;32;20422;-83
2023/12/08 11:21:23;;;;;;;17.48;6.72;;;;;;;6.85;58.25;98155.87;4380136;32;20157;-83
2023/12/08 11:23:51;;;;;;;16.25;6.68;;;;;;;6.31;59.68;98160.66;4366666;32;20107;-82
2023/12/08 11:26:39;;;;;;;18.42;7.43;;;;;;;6.49;59.78;98155.09;4379977;32;20090;-83
2023/12/08 11:29:25;;;;;;;16.10;6.62;;;;;;;6.71;59.52;98152.00;4379639;32;20074;-82
2023/12/08 11:32:20;;;;;;;17.37;6.82;;;;;;;6.58;60.00;98159.13;4366001;32;20166;-82
2023/12/08 11:35:00;;;;;;;17.17;7.30;;;;;;;6.85;59.16;98155.03;4379799;32;20121;-82
2023/12/08 11:37:32;;;;;;;15.13;6.70;;;;;;;6.94;58.85;98142.81;4380209;32;20438;-83
2023/12/08 11:40:10;;;;;;;16.80;8.05;;;;;;;6.90;59.19;98148.91;4366699;32;20140;-83
2023/12/08 11:42:39;;;;;;;19.17;7.93;;;;;;;6.17;61.65;98140.50;4380260;32;20134;-83
2023/12/08 11:45:10;;;;;;;20.23;8.23;;;;;;;6.68;60.16;98146.03;4361825;32;20095;-84
2023/12/08 11:47:37;;;;;;;21.27;8.77;;;;;;;6.09;62.43;98148.37;4377554;32;20116;-84
2023/12/08 11:50:07;;;;;;;23.35;9.93;;;;;;;6.00;63.48;98147.72;4379750;32;20148;-84
2023/12/08 11:52:36;;;;;;;22.08;10.25;;;;;;;6.35;62.37;98147.72;4379840;32;20552;-84
2023/12/08 11:55:19;;;;;;;25.12;10.48;;;;;;;6.28;62.11;98153.91;4379053;32;20176;-84
2023/12/08 11:58:01;;;;;;;25.50;11.50;;;;;;;6.00;63.31;98151.13;4377514;32;20108;-83
2023/12/08 12:00:30;;;;;;;27.33;11.68;;;;;;;6.69;61.08;98152.00;4371395;32;20129;-83
2023/12/08 12:02:58;;;;;;;28.73;12.20;;;;;;;6.58;61.34;98149.72;4362603;32;20087;-84
2023/12/08 12:05:26;;;;;;;23.38;11.25;;;;;;;6.54;61.56;98152.41;4363219;32;20154;-83
2023/12/08 12:07:55;;;;;;;23.75;11.73;;;;;;;6.52;62.05;98156.75;4338409;32;20169;-83
2023/12/08 12:10:27;;;;;;;37.95;15.43;;;;;;;6.61;61.73;98154.78;4365514;32;20559;-81
2023/12/08 12:12:56;;;;;;;34.85;14.50;;;;;;;6.64;61.85;98139.31;4364714;32;20537;-79
2023/12/08 12:15:25;;;;;;;29.23;12.55;;;;;;;6.86;61.92;98143.91;4350996;32;20115;-79
2023/12/08 12:17:52;;;;;;;27.00;11.73;;;;;;;6.83;60.95;98139.69;4364082;32;20174;-79
2023/12/08 12:20:20;;;;;;;31.75;14.02;;;;;;;6.63;61.15;98137.66;4351143;32;20079;-78
2023/12/08 12:22:47;;;;;;;31.75;13.95;;;;;;;6.62;62.45;98137.69;4350903;32;20103;-79
2023/12/08 12:25:14;;;;;;;31.42;12.60;;;;;;;6.53;62.25;98135.34;4363922;32;20162;-79
2023/12/08 12:27:43;;;;;;;32.35;14.60;;;;;;;6.22;62.54;98127.56;4350912;32;20086;-81
2023/12/08 12:30:11;;;;;;;27.45;13.38;;;;;;;6.83;61.41;98126.87;4364193;32;20075;-78
2023/12/08 12:32:39;;;;;;;34.45;14.25;;;;;;;6.06;64.68;98122.81;4350677;32;20103;-78